ADDS METAR Data INFO
IDs: Format: Raw Decoded Include TAF

Data at: 1131 UTC 29 May 2017

METAR for:PANC (Anchorage Intl, AK, US)
Text:PANC 291053Z 00000KT 10SM FEW030 OVC060 07/06 A2984 RMK AO2 RAE16 SLP105 P0000 T00720056
Temperature: 7.2°C ( 45°F)
Dewpoint: 5.6°C ( 42°F) [RH = 90%]
Pressure (altimeter):29.84 inches Hg (1010.6 mb) [Sea level pressure: 1010.5 mb]
Winds:calm
Visibility:10 or more sm (16+ km)
Ceiling:6000 feet AGL
Clouds: few clouds at 3000 feet AGL, overcast cloud deck at 6000 feet AGL
Text:PANC 290953Z 34004KT 10SM -RA FEW030 BKN070 OVC090 07/04 A2984 RMK AO2 RAB45 SLP106 P0000 T00720044
Temperature: 7.2°C ( 45°F)
Dewpoint: 4.4°C ( 40°F) [RH = 82%]
Pressure (altimeter):29.84 inches Hg (1010.6 mb) [Sea level pressure: 1010.6 mb]
Winds:from the NNW (340 degrees) at 5 MPH (4 knots; 2.1 m/s)
Visibility:10 or more sm (16+ km)
Ceiling:7000 feet AGL
Clouds: few clouds at 3000 feet AGL, broken clouds at 7000 feet AGL, overcast cloud deck at 9000 feet AGL
Weather:-RA (light rain)
Text:PANC 290853Z 00000KT 10SM FEW032 BKN075 BKN090 07/03 A2984 RMK AO2 SLP106 T00670033 400890050 58004
Temperature: 6.7°C ( 44°F)
Dewpoint: 3.3°C ( 38°F) [RH = 79%]
Pressure (altimeter):29.84 inches Hg (1010.6 mb) [Sea level pressure: 1010.6 mb]
Winds:calm
Visibility:10 or more sm (16+ km)
Ceiling:7500 feet AGL
Clouds: few clouds at 3200 feet AGL, broken clouds at 7500 feet AGL, broken clouds at 9000 feet AGL
Text:PANC 290753Z 20005KT 10SM FEW032 BKN075 BKN090 08/02 A2984 RMK AO2 SLP107 VIRGA ALQDS T00780022
Temperature: 7.8°C ( 46°F)
Dewpoint: 2.2°C ( 36°F) [RH = 68%]
Pressure (altimeter):29.84 inches Hg (1010.6 mb) [Sea level pressure: 1010.7 mb]
Winds:from the SSW (200 degrees) at 6 MPH (5 knots; 2.6 m/s)
Visibility:10 or more sm (16+ km)
Ceiling:7500 feet AGL
Clouds: few clouds at 3200 feet AGL, broken clouds at 7500 feet AGL, broken clouds at 9000 feet AGL
Text:PANC 290653Z 18004KT 10SM FEW032 BKN075 BKN090 08/02 A2985 RMK AO2 SLP108 VIRGA ALQDS ACSL S T00780022
Temperature: 7.8°C ( 46°F)
Dewpoint: 2.2°C ( 36°F) [RH = 68%]
Pressure (altimeter):29.85 inches Hg (1010.9 mb) [Sea level pressure: 1010.8 mb]
Winds:from the S (180 degrees) at 5 MPH (4 knots; 2.1 m/s)
Visibility:10 or more sm (16+ km)
Ceiling:7500 feet AGL
Clouds: few clouds at 3200 feet AGL, broken clouds at 7500 feet AGL, broken clouds at 9000 feet AGL
Text:PANC 290553Z 16010KT 10SM FEW035 BKN075 BKN090 08/02 A2985 RMK AO2 SLP110 VIRGA W-N ACSL S 60000 T00780022 10089 20078 58006
Temperature: 7.8°C ( 46°F)
Dewpoint: 2.2°C ( 36°F) [RH = 68%]
Pressure (altimeter):29.85 inches Hg (1010.9 mb) [Sea level pressure: 1011.0 mb]
Winds:from the SSE (160 degrees) at 12 MPH (10 knots; 5.1 m/s)
Visibility:10 or more sm (16+ km)
Ceiling:7500 feet AGL
Clouds: few clouds at 3500 feet AGL, broken clouds at 7500 feet AGL, broken clouds at 9000 feet AGL

TAF for:PANC (Anchorage Intl, AK, US) issued at 0934 UTC 29 May 2017
Text:PANC 290934Z 2910/3012 VRB05KT P6SM VCSH SCT030 BKN070
Forecast period:1000 to 1500 UTC 29 May 2017
Forecast type:FROM: standard forecast or significant change
Winds:variable direction winds at 6 MPH (5 knots; 2.6 m/s)
Visibility:6 or more sm (10+ km)
Ceiling:7000 feet AGL
Clouds: scattered clouds at 3000 feet AGL, broken clouds at 7000 feet AGL
Weather:VCSH (showers in vicinity)
Text:FM291500 17011KT P6SM -SHRA SCT030 OVC050
Forecast period:1500 UTC 29 May 2017 to 1200 UTC 30 May 2017
Forecast type:FROM: standard forecast or significant change
Winds:from the S (170 degrees) at 13 MPH (11 knots; 5.7 m/s)
Visibility:6 or more sm (10+ km)
Ceiling:5000 feet AGL
Clouds: scattered clouds at 3000 feet AGL, overcast cloud deck at 5000 feet AGL
Weather:-SHRA (light rain showers)


Page loaded:  11:31 UTC  |   04:31 AM Pacific  |   05:31 AM Mountain  |   06:31 AM Central  |   07:31 AM Eastern

 

ADVISORIES

FORECASTS

FORECASTS

OBSERVATIONS

USER TOOLS

ABOUT US